createdAt,value
2018-10-17T00:01:43.659Z,16.00
2018-10-17T00:04:19.312Z,16.00
2018-10-17T00:06:54.501Z,16.00
2018-10-17T00:09:30.432Z,16.00
2018-10-17T00:12:07.052Z,16.00
2018-10-17T00:14:42.501Z,16.00
2018-10-17T00:17:19.670Z,16.00
2018-10-17T00:19:59.044Z,16.00
2018-10-17T00:22:41.324Z,16.00
2018-10-17T00:25:25.957Z,15.90
2018-10-17T00:28:04.561Z,15.90
2018-10-17T00:30:40.763Z,15.90
2018-10-17T00:33:17.137Z,15.90
2018-10-17T00:35:53.419Z,15.90
2018-10-17T00:38:34.834Z,15.90
2018-10-17T00:41:14.016Z,15.90
2018-10-17T00:43:53.777Z,15.90
2018-10-17T00:46:29.450Z,15.80
2018-10-17T00:49:04.897Z,15.80
2018-10-17T00:51:39.892Z,15.80
2018-10-17T00:54:20.186Z,15.80
2018-10-17T00:57:02.933Z,15.80
2018-10-17T00:59:43.754Z,15.70
2018-10-17T01:02:21.198Z,15.80
2018-10-17T01:04:58.614Z,15.80
2018-10-17T01:07:39.185Z,15.80
2018-10-17T01:10:16.122Z,15.80
2018-10-17T01:12:56.953Z,15.70
2018-10-17T01:15:32.214Z,15.70
2018-10-17T01:18:07.941Z,15.70
2018-10-17T01:20:55.688Z,15.70
2018-10-17T01:23:32.319Z,15.70
2018-10-17T01:26:10.519Z,15.60
2018-10-17T01:28:46.252Z,15.60
2018-10-17T01:31:22.445Z,15.60
2018-10-17T01:34:01.929Z,15.50
2018-10-17T01:36:43.266Z,15.60
2018-10-17T01:39:20.199Z,15.50
2018-10-17T01:41:56.211Z,15.50
2018-10-17T01:44:31.985Z,15.50
2018-10-17T01:47:08.256Z,15.60
2018-10-17T01:49:45.239Z,15.50
2018-10-17T01:52:21.809Z,15.50
2018-10-17T01:55:04.159Z,15.40
2018-10-17T01:57:40.364Z,15.50
2018-10-17T02:00:21.189Z,15.40
2018-10-17T02:02:56.754Z,15.40
2018-10-17T02:05:32.011Z,15.40
2018-10-17T02:08:09.265Z,15.40
2018-10-17T02:10:52.045Z,15.40
2018-10-17T02:13:28.227Z,15.30
2018-10-17T02:16:04.933Z,15.30
2018-10-17T02:18:40.830Z,15.30
2018-10-17T02:23:56.717Z,15.30
2018-10-17T02:26:33.343Z,15.30
2018-10-17T02:29:08.728Z,15.30
2018-10-17T02:31:49.757Z,15.20
2018-10-17T02:34:29.950Z,15.20
2018-10-17T02:37:07.279Z,15.20
2018-10-17T02:39:44.243Z,15.20
2018-10-17T02:42:20.295Z,15.10
2018-10-17T02:44:55.878Z,15.10
2018-10-17T02:47:40.064Z,15.10
2018-10-17T02:50:17.090Z,15.10
2018-10-17T02:52:55.226Z,15.10
2018-10-17T02:55:30.314Z,15.10
2018-10-17T02:58:06.186Z,15.00
2018-10-17T03:00:47.781Z,15.00
2018-10-17T03:03:24.098Z,15.10
2018-10-17T03:06:00.738Z,15.00
2018-10-17T03:08:36.527Z,15.00
2018-10-17T03:11:16.870Z,15.00
2018-10-17T03:13:52.065Z,15.00
2018-10-17T03:16:27.588Z,15.00
2018-10-17T03:19:03.059Z,14.90
2018-10-17T03:21:52.560Z,14.90
2018-10-17T03:24:28.243Z,14.90
2018-10-17T03:27:03.545Z,14.90
2018-10-17T03:29:40.285Z,14.90
2018-10-17T03:32:17.534Z,14.90
2018-10-17T03:34:54.162Z,14.90
2018-10-17T03:37:34.356Z,14.80
2018-10-17T03:40:10.650Z,14.90
2018-10-17T03:42:46.543Z,14.90
2018-10-17T03:45:21.478Z,14.90
2018-10-17T03:47:56.906Z,14.90
2018-10-17T03:50:32.325Z,14.90
2018-10-17T03:53:07.362Z,14.80
2018-10-17T03:55:43.928Z,14.80
2018-10-17T03:58:19.543Z,14.90
2018-10-17T04:00:59.213Z,14.90
2018-10-17T04:03:35.483Z,14.80
2018-10-17T04:06:21.669Z,14.90
2018-10-17T04:09:02.827Z,14.90
2018-10-17T04:11:40.117Z,14.80
2018-10-17T04:14:16.550Z,14.90
2018-10-17T04:16:52.536Z,14.80
2018-10-17T04:19:27.994Z,14.80
2018-10-17T04:22:03.265Z,14.80
2018-10-17T04:24:43.232Z,14.80
2018-10-17T04:27:18.233Z,14.80
2018-10-17T04:29:53.770Z,14.80
2018-10-17T04:32:29.107Z,14.80
2018-10-17T04:35:09.141Z,14.80
2018-10-17T04:37:46.591Z,14.80
2018-10-17T04:40:22.400Z,14.80
2018-10-17T04:43:02.975Z,14.80
2018-10-17T04:45:38.758Z,14.80
2018-10-17T04:48:14.915Z,14.80
2018-10-17T04:50:49.752Z,14.70
2018-10-17T04:53:26.190Z,14.80
2018-10-17T04:56:07.872Z,14.70
2018-10-17T04:58:43.446Z,14.80
2018-10-17T05:01:24.633Z,14.80
2018-10-17T05:04:01.287Z,14.80
2018-10-17T05:06:37.413Z,14.70
2018-10-17T05:09:22.005Z,14.70
2018-10-17T05:11:59.198Z,14.70
2018-10-17T05:14:35.062Z,14.80
2018-10-17T05:17:11.878Z,14.80
2018-10-17T05:19:47.196Z,14.80
2018-10-17T05:22:23.865Z,14.80
2018-10-17T05:25:00.352Z,14.80
2018-10-17T05:27:41.862Z,14.80
2018-10-17T05:30:22.614Z,14.80
2018-10-17T05:32:59.204Z,14.80
2018-10-17T05:35:36.256Z,14.80
2018-10-17T05:38:11.885Z,14.80
2018-10-17T05:40:52.994Z,14.80
2018-10-17T05:43:29.361Z,14.80
2018-10-17T05:46:05.608Z,14.80
2018-10-17T05:48:42.868Z,14.80
2018-10-17T05:51:22.720Z,14.80
2018-10-17T05:53:58.201Z,14.80
2018-10-17T05:56:33.869Z,14.80
2018-10-17T05:59:14.044Z,14.90
2018-10-17T06:01:50.302Z,14.80
2018-10-17T06:04:30.137Z,14.90
2018-10-17T06:07:11.266Z,14.90
2018-10-17T06:09:49.404Z,15.00
2018-10-17T06:12:24.896Z,15.00
2018-10-17T06:15:05.976Z,14.90
2018-10-17T06:17:42.086Z,14.90
2018-10-17T06:20:22.188Z,15.00
2018-10-17T06:22:59.691Z,15.00
2018-10-17T06:25:35.374Z,15.00
2018-10-17T06:28:17.928Z,15.00
2018-10-17T06:30:54.193Z,15.00
2018-10-17T06:33:30.021Z,15.00
2018-10-17T06:36:14.821Z,15.00
2018-10-17T06:38:50.929Z,15.00
2018-10-17T06:41:26.495Z,15.00
2018-10-17T06:44:02.909Z,15.00
2018-10-17T06:46:45.269Z,15.00
2018-10-17T06:49:22.532Z,15.10
2018-10-17T06:52:04.497Z,15.10
2018-10-17T06:54:40.434Z,15.10
2018-10-17T06:57:20.302Z,15.00
2018-10-17T06:59:57.425Z,15.10
2018-10-17T07:02:32.996Z,15.00
2018-10-17T07:05:10.724Z,15.10
2018-10-17T07:07:47.270Z,15.10
2018-10-17T07:10:23.117Z,15.10
2018-10-17T07:12:59.807Z,15.10
2018-10-17T07:15:35.755Z,15.10
2018-10-17T07:18:11.391Z,15.10
2018-10-17T07:21:00.100Z,15.20
2018-10-17T07:23:41.360Z,15.20
2018-10-17T07:26:18.110Z,15.30
2018-10-17T07:28:53.678Z,15.30
2018-10-17T07:31:28.909Z,15.20
2018-10-17T07:34:09.180Z,15.20
2018-10-17T07:36:44.427Z,15.30
2018-10-17T07:39:24.102Z,15.30
2018-10-17T07:42:01.685Z,15.30
2018-10-17T07:44:41.856Z,15.30
2018-10-17T07:47:17.547Z,15.30
2018-10-17T07:49:52.830Z,15.30
2018-10-17T07:52:27.879Z,15.40
2018-10-17T07:55:03.778Z,15.40
2018-10-17T07:57:38.864Z,15.40
2018-10-17T08:00:17.106Z,15.40
2018-10-17T08:02:53.201Z,15.50
2018-10-17T08:05:29.578Z,15.40
2018-10-17T08:08:06.386Z,15.50
2018-10-17T08:10:46.217Z,15.50
2018-10-17T08:13:21.377Z,15.50
2018-10-17T08:15:57.936Z,15.40
2018-10-17T08:18:32.933Z,15.50
2018-10-17T08:21:08.316Z,15.50
2018-10-17T08:23:45.060Z,15.60
2018-10-17T08:26:21.215Z,15.70
2018-10-17T08:28:57.382Z,15.70
2018-10-17T08:31:36.367Z,15.80
2018-10-17T08:34:12.000Z,15.80
2018-10-17T08:36:48.824Z,15.90
2018-10-17T08:39:24.516Z,16.00
2018-10-17T08:42:01.936Z,16.10
2018-10-17T08:44:39.114Z,16.20
2018-10-17T08:47:20.009Z,16.20
2018-10-17T08:49:56.839Z,16.30
2018-10-17T08:52:34.055Z,16.30
2018-10-17T08:55:10.643Z,16.40
2018-10-17T08:57:52.471Z,16.40
2018-10-17T09:00:29.970Z,16.50
2018-10-17T09:03:07.129Z,16.50
2018-10-17T09:05:42.412Z,16.60
2018-10-17T09:08:18.628Z,16.60
2018-10-17T09:10:53.554Z,16.60
2018-10-17T09:13:33.953Z,16.70
2018-10-17T09:16:09.781Z,16.70
2018-10-17T09:18:45.984Z,16.70
2018-10-17T09:21:22.027Z,16.80
2018-10-17T09:23:59.958Z,16.90
2018-10-17T09:26:35.908Z,17.00
2018-10-17T09:29:16.911Z,17.10
2018-10-17T09:31:53.561Z,17.10
2018-10-17T09:34:29.644Z,17.20
2018-10-17T09:37:10.749Z,17.20
2018-10-17T09:39:46.768Z,17.30
2018-10-17T09:42:24.743Z,17.40
2018-10-17T09:45:00.159Z,17.60
2018-10-17T09:47:35.350Z,17.60
2018-10-17T09:50:12.768Z,17.60
2018-10-17T09:53:00.447Z,17.70
2018-10-17T09:55:38.089Z,17.80
2018-10-17T09:58:18.441Z,17.80
2018-10-17T10:01:01.244Z,17.90
2018-10-17T10:03:42.693Z,17.80
2018-10-17T10:06:18.573Z,17.80
2018-10-17T10:08:58.325Z,17.80
2018-10-17T10:11:34.342Z,17.90
2018-10-17T10:14:15.447Z,17.90
2018-10-17T10:16:54.073Z,17.90
2018-10-17T10:19:46.716Z,18.00
2018-10-17T10:22:30.448Z,18.00
2018-10-17T10:25:17.186Z,18.00
2018-10-17T10:27:59.744Z,18.10
2018-10-17T10:30:40.957Z,18.20
2018-10-17T10:33:29.240Z,18.20
2018-10-17T10:36:13.873Z,18.30
2018-10-17T10:38:59.642Z,18.30
2018-10-17T10:41:47.293Z,18.30
2018-10-17T10:44:32.054Z,18.30
2018-10-17T10:47:15.031Z,18.40
2018-10-17T10:49:58.050Z,18.40
2018-10-17T10:52:37.771Z,18.40
2018-10-17T10:55:14.535Z,18.40
2018-10-17T10:58:00.167Z,18.30
2018-10-17T11:00:47.086Z,18.30
2018-10-17T11:03:31.995Z,18.30
2018-10-17T11:06:26.478Z,18.40
2018-10-17T11:09:03.607Z,18.40
2018-10-17T11:11:44.821Z,18.40
2018-10-17T11:14:26.167Z,18.40
2018-10-17T11:17:03.857Z,18.50
2018-10-17T11:19:41.693Z,18.50
2018-10-17T11:22:17.423Z,18.50
2018-10-17T11:24:55.016Z,18.60
2018-10-17T11:27:32.498Z,18.70
2018-10-17T11:30:12.068Z,18.70
2018-10-17T11:32:51.593Z,18.70
2018-10-17T11:35:28.813Z,18.80
2018-10-17T11:38:05.196Z,18.80
2018-10-17T11:40:40.656Z,18.80
2018-10-17T11:43:18.357Z,18.80
2018-10-17T11:45:54.184Z,18.80
2018-10-17T11:48:29.540Z,18.90
2018-10-17T11:51:10.130Z,19.00
2018-10-17T11:53:46.270Z,19.00
2018-10-17T11:56:27.121Z,19.10
2018-10-17T11:59:03.581Z,19.10
2018-10-17T12:01:40.922Z,19.20
2018-10-17T12:04:20.151Z,19.20
2018-10-17T12:07:03.403Z,19.20
2018-10-17T12:09:50.742Z,19.10
2018-10-17T12:12:27.561Z,19.10
2018-10-17T12:15:22.852Z,19.10
2018-10-17T12:20:45.093Z,19.10
2018-10-17T12:23:25.957Z,19.10
2018-10-17T12:26:01.368Z,19.10
2018-10-17T12:28:37.550Z,19.10
2018-10-17T12:31:13.111Z,19.10
2018-10-17T12:33:50.347Z,19.10
2018-10-17T12:36:29.325Z,19.20
2018-10-17T12:39:06.710Z,19.20
2018-10-17T12:41:43.837Z,19.20
2018-10-17T12:44:24.584Z,19.20
2018-10-17T12:47:00.791Z,19.20
2018-10-17T12:49:37.564Z,19.20
2018-10-17T12:52:14.349Z,19.30
2018-10-17T12:54:54.634Z,19.20
2018-10-17T12:57:37.145Z,19.20
2018-10-17T13:00:13.154Z,19.20
2018-10-17T13:02:50.683Z,19.20
2018-10-17T13:05:31.477Z,19.20
2018-10-17T13:08:08.778Z,19.30
2018-10-17T13:10:45.515Z,19.30
2018-10-17T13:13:21.929Z,19.30
2018-10-17T13:15:58.354Z,19.30
2018-10-17T13:18:34.470Z,19.30
2018-10-17T13:21:10.878Z,19.30
2018-10-17T13:23:46.461Z,19.30
2018-10-17T13:26:27.932Z,19.30
2018-10-17T13:29:04.669Z,19.30
2018-10-17T13:31:44.434Z,19.30
2018-10-17T13:34:21.723Z,19.30
2018-10-17T13:36:56.819Z,19.30
2018-10-17T13:39:39.069Z,19.30
2018-10-17T13:42:21.981Z,19.30
2018-10-17T13:45:00.842Z,19.30
2018-10-17T13:47:42.203Z,19.30
2018-10-17T13:50:18.088Z,19.30
2018-10-17T13:52:54.397Z,19.40
2018-10-17T13:55:32.217Z,19.40
2018-10-17T13:58:08.558Z,19.40
2018-10-17T14:00:44.758Z,19.40
2018-10-17T14:03:21.074Z,19.40
2018-10-17T14:05:57.243Z,19.40
2018-10-17T14:08:32.811Z,19.40
2018-10-17T14:11:09.553Z,19.50
2018-10-17T14:13:45.942Z,19.50
2018-10-17T14:16:23.399Z,19.50
2018-10-17T14:19:00.361Z,19.20
2018-10-17T14:21:36.481Z,19.10
2018-10-17T14:24:16.586Z,19.10
2018-10-17T14:26:54.763Z,19.20
2018-10-17T14:29:30.555Z,19.20
2018-10-17T14:32:10.893Z,19.20
2018-10-17T14:34:47.755Z,19.20
2018-10-17T14:37:31.180Z,19.20
2018-10-17T14:40:06.468Z,19.20
2018-10-17T14:42:41.898Z,19.20
2018-10-17T14:45:17.776Z,19.20
2018-10-17T14:47:58.168Z,19.20
2018-10-17T14:50:38.721Z,19.20
2018-10-17T14:53:15.200Z,19.30
2018-10-17T14:55:51.215Z,19.30
2018-10-17T14:58:27.553Z,19.30
2018-10-17T15:01:04.047Z,19.30
2018-10-17T15:03:40.830Z,19.30
2018-10-17T15:06:16.781Z,19.30
2018-10-17T15:08:53.034Z,19.30
2018-10-17T15:11:29.637Z,19.30
2018-10-17T15:14:10.865Z,19.30
2018-10-17T15:16:46.805Z,19.30
2018-10-17T15:19:30.235Z,19.30
2018-10-17T15:22:08.025Z,19.30
2018-10-17T15:24:48.677Z,19.40
2018-10-17T15:27:24.722Z,19.30
2018-10-17T15:30:04.335Z,19.30
2018-10-17T15:32:39.544Z,19.30
2018-10-17T15:35:15.555Z,19.30
2018-10-17T15:37:51.529Z,19.30
2018-10-17T15:40:30.125Z,19.30
2018-10-17T15:43:11.989Z,19.30
2018-10-17T15:45:49.304Z,19.30
2018-10-17T15:48:25.726Z,19.30
2018-10-17T15:51:01.306Z,19.30
2018-10-17T15:53:37.848Z,19.30
2018-10-17T15:56:13.851Z,19.30
2018-10-17T15:58:48.969Z,19.30
2018-10-17T16:01:25.130Z,19.30
2018-10-17T16:04:05.972Z,19.30
2018-10-17T16:06:46.973Z,19.30
2018-10-17T16:09:27.313Z,19.30
2018-10-17T16:12:03.810Z,19.20
2018-10-17T16:14:39.869Z,19.20
2018-10-17T16:17:22.026Z,19.20
2018-10-17T16:19:57.857Z,19.20
2018-10-17T16:22:39.118Z,19.20
2018-10-17T16:25:15.626Z,19.10
2018-10-17T16:27:51.994Z,19.10
2018-10-17T16:30:28.334Z,19.10
2018-10-17T16:33:04.439Z,19.00
2018-10-17T16:35:43.881Z,19.00
2018-10-17T16:38:19.728Z,19.00
2018-10-17T16:40:56.517Z,18.90
2018-10-17T16:43:33.977Z,18.90
2018-10-17T16:46:11.490Z,18.90
2018-10-17T16:48:53.600Z,18.90
2018-10-17T16:51:37.088Z,18.80
2018-10-17T16:54:17.238Z,18.80
2018-10-17T16:56:54.038Z,18.80
2018-10-17T16:59:31.653Z,18.80
2018-10-17T17:02:09.193Z,18.80
2018-10-17T17:04:46.209Z,18.80
2018-10-17T17:07:25.837Z,18.70
2018-10-17T17:10:05.965Z,18.70
2018-10-17T17:12:42.220Z,18.70
2018-10-17T17:15:18.403Z,18.70
2018-10-17T17:17:55.337Z,18.70
2018-10-17T17:20:35.520Z,18.70
2018-10-17T17:23:12.166Z,18.70
2018-10-17T17:25:47.981Z,18.70
2018-10-17T17:28:27.212Z,18.70
2018-10-17T17:31:03.357Z,18.70
2018-10-17T17:33:39.410Z,18.70
2018-10-17T17:36:19.138Z,18.60
2018-10-17T17:38:55.659Z,18.60
2018-10-17T17:41:32.069Z,18.60
2018-10-17T17:44:09.555Z,18.60
2018-10-17T17:46:50.137Z,18.60
2018-10-17T17:49:27.305Z,18.60
2018-10-17T17:52:04.608Z,18.60
2018-10-17T17:54:45.629Z,18.60
2018-10-17T17:57:23.224Z,18.50
2018-10-17T18:00:04.840Z,18.60
2018-10-17T18:02:47.451Z,18.50
2018-10-17T18:05:26.988Z,18.50
2018-10-17T18:08:04.116Z,18.50
2018-10-17T18:10:44.172Z,18.50
2018-10-17T18:13:20.595Z,18.50
2018-10-17T18:15:56.093Z,18.50
2018-10-17T18:18:32.916Z,18.50
2018-10-17T18:21:09.076Z,18.50
2018-10-17T18:23:45.719Z,18.50
2018-10-17T18:26:23.578Z,18.50
2018-10-17T18:29:01.372Z,18.50
2018-10-17T18:31:38.070Z,18.50
2018-10-17T18:34:14.179Z,18.50
2018-10-17T18:36:51.749Z,18.50
2018-10-17T18:39:27.781Z,18.50
2018-10-17T18:42:09.833Z,18.50
2018-10-17T18:44:52.632Z,18.50
2018-10-17T18:47:29.341Z,18.50
2018-10-17T18:50:07.195Z,18.50
2018-10-17T18:52:43.923Z,18.50
2018-10-17T18:55:20.102Z,18.50
2018-10-17T18:57:55.564Z,18.50
2018-10-17T19:00:36.236Z,18.50
2018-10-17T19:03:12.082Z,18.50
2018-10-17T19:05:47.897Z,18.50
2018-10-17T19:11:40.772Z,18.50
2018-10-17T19:14:17.235Z,18.50
2018-10-17T19:17:01.624Z,18.50
2018-10-17T19:19:38.481Z,18.50
2018-10-17T19:22:15.178Z,18.50
2018-10-17T19:24:57.347Z,18.50
2018-10-17T19:27:34.872Z,18.40
2018-10-17T19:30:13.328Z,18.40
2018-10-17T19:32:50.593Z,18.50
2018-10-17T19:35:26.739Z,18.50
2018-10-17T19:38:03.625Z,18.40
2018-10-17T19:40:38.914Z,18.40
2018-10-17T19:43:14.854Z,18.40
2018-10-17T19:45:52.111Z,18.40
2018-10-17T19:48:27.997Z,18.40
2018-10-17T19:51:08.038Z,18.40
2018-10-17T19:53:48.108Z,18.40
2018-10-17T19:56:25.235Z,18.40
2018-10-17T19:59:01.970Z,18.40
2018-10-17T20:01:38.937Z,18.40
2018-10-17T20:04:16.788Z,18.40
2018-10-17T20:06:53.265Z,18.40
2018-10-17T20:09:31.328Z,18.40
2018-10-17T20:12:08.400Z,18.40
2018-10-17T20:14:46.128Z,18.40
2018-10-17T20:17:26.290Z,18.30
2018-10-17T20:20:02.317Z,18.30
2018-10-17T20:22:41.958Z,18.30
2018-10-17T20:25:17.820Z,18.30
2018-10-17T20:27:54.603Z,18.30
2018-10-17T20:30:34.908Z,18.30
2018-10-17T20:33:12.116Z,18.30
2018-10-17T20:35:52.959Z,18.30
2018-10-17T20:38:29.191Z,18.20
2018-10-17T20:41:05.739Z,18.20
2018-10-17T20:43:41.181Z,18.20
2018-10-17T20:46:18.025Z,18.20
2018-10-17T20:48:54.113Z,18.20
2018-10-17T20:51:36.500Z,18.20
2018-10-17T20:54:13.773Z,18.20
2018-10-17T20:56:49.887Z,18.20
2018-10-17T20:59:25.827Z,18.10
2018-10-17T21:02:01.803Z,18.20
2018-10-17T21:04:42.897Z,18.10
2018-10-17T21:07:23.937Z,18.10
2018-10-17T21:10:01.377Z,18.10
2018-10-17T21:12:37.613Z,18.10
2018-10-17T21:15:19.021Z,18.10
2018-10-17T21:20:35.137Z,18.10
2018-10-17T21:23:10.385Z,18.10
2018-10-17T21:25:50.119Z,18.10
2018-10-17T21:28:25.159Z,18.10
2018-10-17T21:31:02.783Z,18.00
2018-10-17T21:33:39.955Z,18.00
2018-10-17T21:36:16.053Z,18.00
2018-10-17T21:38:52.105Z,18.10
2018-10-17T21:41:27.758Z,18.10
2018-10-17T21:44:03.587Z,18.10
2018-10-17T21:46:40.509Z,18.00
2018-10-17T21:49:20.363Z,18.00
2018-10-17T21:51:56.733Z,18.00
2018-10-17T21:54:36.894Z,18.10
2018-10-17T21:57:13.102Z,18.00
2018-10-17T21:59:52.953Z,18.00
2018-10-17T22:02:30.960Z,18.00
2018-10-17T22:05:08.996Z,18.00
2018-10-17T22:07:48.983Z,18.00
2018-10-17T22:10:29.622Z,18.00
2018-10-17T22:13:05.734Z,17.90
2018-10-17T22:15:42.823Z,18.00
2018-10-17T22:18:23.701Z,17.90
2018-10-17T22:20:59.892Z,17.90
2018-10-17T22:23:36.835Z,17.90
2018-10-17T22:26:13.137Z,17.90
2018-10-17T22:28:56.596Z,17.90
2018-10-17T22:31:35.724Z,17.90
2018-10-17T22:34:15.594Z,17.90
2018-10-17T22:36:54.847Z,17.90
2018-10-17T22:39:31.123Z,17.90
2018-10-17T22:42:12.029Z,17.90
2018-10-17T22:44:46.992Z,17.90
2018-10-17T22:47:23.535Z,17.90
2018-10-17T22:50:00.404Z,17.80
2018-10-17T22:52:42.313Z,17.90
2018-10-17T22:55:19.480Z,17.90
2018-10-17T22:57:56.698Z,17.90
2018-10-17T23:00:32.093Z,17.90
2018-10-17T23:03:08.264Z,17.90
2018-10-17T23:05:46.008Z,17.90
2018-10-17T23:08:25.553Z,17.90
2018-10-17T23:11:01.663Z,17.90
2018-10-17T23:13:39.725Z,17.90
2018-10-17T23:16:16.599Z,17.90
2018-10-17T23:18:51.766Z,17.90
2018-10-17T23:21:29.380Z,17.90
2018-10-17T23:24:05.773Z,17.80
2018-10-17T23:26:51.245Z,17.80
2018-10-17T23:29:27.413Z,17.80
2018-10-17T23:32:02.941Z,17.80
2018-10-17T23:34:39.461Z,17.80
2018-10-17T23:37:15.504Z,17.80
2018-10-17T23:39:51.346Z,17.70
2018-10-17T23:42:27.764Z,17.70
2018-10-17T23:45:04.202Z,17.70
2018-10-17T23:47:40.197Z,17.70
2018-10-17T23:50:15.430Z,17.70
2018-10-17T23:52:52.771Z,17.70
2018-10-17T23:55:27.965Z,17.70
2018-10-17T23:58:03.512Z,17.70
